Time;durP1;ratioP1;P1;durP2;ratioP2;P2;SDS_P1;SDS_P2;PMS_P1;PMS_P2;Temp;Humidity;BMP_temperature;BMP_pressure;BME280_temperature;BME280_humidity;BME280_pressure;Samples;Min_cycle;Max_cycle;Signal;HPM_P1;HPM_P2
2023/07/21 00:02:22;;;;;;;2.60;1.57;;;;;;;;;;5116135;28;20547;-60
2023/07/21 00:04:49;;;;;;;4.27;1.87;;;17.10;99.90;;;;;;5100256;28;20481;-59
2023/07/21 00:07:16;;;;;;;4.57;1.90;;;;;;;;;;5105506;28;20477;-57
2023/07/21 00:09:45;;;;;;;3.53;1.50;;;16.80;99.90;;;;;;5109005;28;20489;-59
2023/07/21 00:12:12;;;;;;;8.57;2.03;;;16.60;99.90;;;;;;5096635;28;20540;-60
2023/07/21 00:14:39;;;;;;;2.60;1.87;;;;;;;;;;5113103;28;20484;-59
2023/07/21 00:17:08;;;;;;;5.57;1.90;;;;;;;;;;5117669;28;20434;-58
2023/07/21 00:19:36;;;;;;;4.13;1.60;;;;;;;;;;5096600;28;20545;-59
2023/07/21 00:22:04;;;;;;;4.03;1.63;;;;;;;;;;5095357;28;20459;-61
2023/07/21 00:24:31;;;;;;;2.47;1.50;;;;;;;;;;5095509;28;20491;-59
2023/07/21 00:27:01;;;;;;;1.83;1.30;;;16.90;99.90;;;;;;5095744;28;20458;-61
2023/07/21 00:29:33;;;;;;;4.00;1.90;;;16.50;99.90;;;;;;5116247;28;20496;-56
2023/07/21 00:32:01;;;;;;;2.93;1.73;;;16.70;99.90;;;;;;5107642;28;20484;-59
2023/07/21 00:34:28;;;;;;;2.53;1.60;;;;;;;;;;5095392;28;20510;-61
2023/07/21 00:36:57;;;;;;;2.00;1.60;;;16.70;99.90;;;;;;5095303;28;20477;-60
2023/07/21 00:39:24;;;;;;;1.60;1.40;;;;;;;;;;5095427;28;20477;-60
2023/07/21 00:41:52;;;;;;;3.00;1.60;;;;;;;;;;5095708;28;20571;-59
2023/07/21 00:44:21;;;;;;;2.13;1.40;;;16.30;99.90;;;;;;5095637;28;21008;-60
2023/07/21 00:46:49;;;;;;;2.00;1.47;;;;;;;;;;5094981;28;20514;-59
2023/07/21 00:49:16;;;;;;;1.47;1.37;;;16.60;99.90;;;;;;5095236;28;20449;-60
2023/07/21 00:51:44;;;;;;;1.67;1.20;;;16.50;99.90;;;;;;5095043;28;20476;-60
2023/07/21 00:54:11;;;;;;;2.30;1.33;;;;;;;;;;5095090;28;20441;-58
2023/07/21 00:56:40;;;;;;;1.73;1.40;;;16.50;99.90;;;;;;5099792;28;20512;-54
2023/07/21 00:59:07;;;;;;;2.00;1.37;;;;;;;;;;5119162;28;20421;-52
2023/07/21 01:01:35;;;;;;;2.70;1.47;;;16.50;99.90;;;;;;5119019;28;20456;-52
2023/07/21 01:04:03;;;;;;;1.40;1.00;;;;;;;;;;5103697;28;20449;-61
2023/07/21 01:06:31;;;;;;;4.77;1.50;;;16.50;99.90;;;;;;5097355;28;20469;-60
2023/07/21 01:09:01;;;;;;;1.80;1.60;;;16.30;99.90;;;;;;5096389;28;20449;-60
2023/07/21 01:11:29;;;;;;;4.10;1.90;;;;;;;;;;5094568;28;20482;-61
2023/07/21 01:14:02;;;;;;;3.07;1.93;;;16.40;99.90;;;;;;5094245;28;20481;-59
2023/07/21 01:16:30;;;;;;;4.93;1.80;;;;;;;;;;5094668;28;20442;-59
2023/07/21 01:18:58;;;;;;;2.53;1.40;;;16.20;99.90;;;;;;5094788;28;20479;-60
2023/07/21 01:21:38;;;;;;;2.37;1.40;;;16.40;99.90;;;;;;5094786;28;20477;-59
2023/07/21 01:24:09;;;;;;;3.57;1.80;;;16.10;99.90;;;;;;5094572;28;20476;-60
2023/07/21 01:26:40;;;;;;;3.87;1.80;;;16.20;99.90;;;;;;5099427;28;20495;-60
2023/07/21 01:29:08;;;;;;;2.17;1.30;;;16.20;99.90;;;;;;5102343;28;20457;-61
2023/07/21 01:31:35;;;;;;;3.57;1.60;;;;;;;;;;5107134;28;20460;-61
2023/07/21 01:34:04;;;;;;;4.50;1.77;;;15.80;99.90;;;;;;5097471;28;20476;-60
2023/07/21 01:36:31;;;;;;;3.70;1.80;;;;;;;;;;5114341;28;20429;-56
2023/07/21 01:38:59;;;;;;;2.13;1.70;;;15.90;99.90;;;;;;5103850;28;20512;-59
2023/07/21 01:41:28;;;;;;;4.07;1.60;;;16.30;99.90;;;;;;5113212;28;20473;-60
2023/07/21 01:43:56;;;;;;;1.70;1.30;;;;;;;;;;5106071;28;20480;-57
2023/07/21 01:46:23;;;;;;;2.50;1.70;;;16.10;99.90;;;;;;5106896;28;20469;-60
2023/07/21 01:48:50;;;;;;;2.90;1.83;;;;;;;;;;5109886;28;20476;-53
2023/07/21 01:51:20;;;;;;;3.27;1.67;;;16.30;99.90;;;;;;5113518;28;20437;-60
2023/07/21 01:53:51;;;;;;;1.60;1.43;;;16.20;99.90;;;;;;5108884;28;20560;-56
2023/07/21 01:56:28;;;;;;;1.97;1.27;;;16.10;99.90;;;;;;5102945;28;20458;-57
2023/07/21 01:59:00;;;;;;;4.10;1.93;;;16.40;99.90;;;;;;5118550;28;20433;-55
2023/07/21 02:01:28;;;;;;;1.97;1.60;;;;;;;;;;5118500;28;20459;-52
2023/07/21 02:03:55;;;;;;;1.43;1.20;;;;;;;;;;5106978;28;20867;-59
2023/07/21 02:06:22;;;;;;;3.93;1.93;;;16.10;99.90;;;;;;5094362;28;20809;-61
2023/07/21 02:08:49;;;;;;;2.53;1.93;;;;;;;;;;5111434;28;20493;-53
2023/07/21 02:11:16;;;;;;;3.50;2.53;;;16.20;99.90;;;;;;5121038;28;20452;-59
2023/07/21 02:13:46;;;;;;;1.70;1.30;;;16.00;99.90;;;;;;5118120;28;20498;-57
2023/07/21 02:16:15;;;;;;;2.23;1.60;;;16.00;99.90;;;;;;5111586;28;20453;-54
2023/07/21 02:18:48;;;;;;;1.67;1.40;;;15.90;99.90;;;;;;5122350;28;20440;-52
2023/07/21 02:21:15;;;;;;;2.70;1.60;;;;;;;;;;5122305;28;20456;-54
2023/07/21 02:23:42;;;;;;;4.53;2.17;;;;;;;;;;5098692;28;20439;-61
2023/07/21 02:26:09;;;;;;;2.70;1.90;;;15.80;99.90;;;;;;5121364;28;20434;-52
2023/07/21 02:28:36;;;;;;;2.77;1.70;;;16.00;99.90;;;;;;5122242;28;20424;-51
2023/07/21 02:31:05;;;;;;;2.87;2.27;;;16.10;99.90;;;;;;5122047;28;20443;-53
2023/07/21 02:33:34;;;;;;;6.50;1.80;;;15.50;99.90;;;;;;5121992;28;20453;-56
2023/07/21 02:36:03;;;;;;;2.70;1.80;;;15.80;99.90;;;;;;5121898;28;20456;-51
2023/07/21 02:38:30;;;;;;;4.73;2.03;;;15.90;99.90;;;;;;5113379;28;20793;-60
2023/07/21 02:41:04;;;;;;;4.50;2.23;;;15.80;99.90;;;;;;5099809;28;20534;-59
2023/07/21 02:43:30;;;;;;;2.30;1.60;;;15.60;99.90;;;;;;5118807;28;20417;-59
2023/07/21 02:45:58;;;;;;;3.87;2.70;;;;;;;;;;5099841;28;20493;-60
2023/07/21 02:48:25;;;;;;;3.77;2.30;;;;;;;;;;5098182;28;20515;-60
2023/07/21 02:50:55;;;;;;;2.87;1.77;;;15.50;99.90;;;;;;5097470;28;20500;-60
2023/07/21 02:53:22;;;;;;;4.03;1.83;;;16.20;99.90;;;;;;5097752;28;20487;-60
2023/07/21 02:55:50;;;;;;;2.07;1.70;;;;;;;;;;5097537;28;20945;-60
2023/07/21 02:58:18;;;;;;;3.70;1.70;;;15.50;99.90;;;;;;5097254;28;20453;-59
2023/07/21 03:00:45;;;;;;;2.13;1.83;;;15.40;99.90;;;;;;5097272;28;20798;-59
2023/07/21 03:03:13;;;;;;;1.97;1.60;;;15.40;99.90;;;;;;5111028;28;20452;-55
2023/07/21 03:05:41;;;;;;;8.23;2.43;;;15.50;99.90;;;;;;5120602;28;20445;-60
2023/07/21 03:08:09;;;;;;;3.20;1.40;;;15.50;99.90;;;;;;5110649;28;20453;-61
2023/07/21 03:10:36;;;;;;;3.63;1.97;;;15.30;99.90;;;;;;5112425;28;20496;-55
2023/07/21 03:13:05;;;;;;;2.27;1.60;;;15.40;99.90;;;;;;5118570;28;20465;-58
2023/07/21 03:15:33;;;;;;;2.70;1.73;;;;;;;;;;5098838;28;20441;-60
2023/07/21 03:17:59;;;;;;;3.00;1.50;;;15.50;99.90;;;;;;5097066;28;20528;-60
2023/07/21 03:20:27;;;;;;;7.60;2.00;;;;;;;;;;5096911;28;20477;-59
2023/07/21 03:22:53;;;;;;;2.80;1.83;;;15.40;99.90;;;;;;5096878;28;20495;-59
2023/07/21 03:25:22;;;;;;;3.30;1.40;;;15.40;99.90;;;;;;5099142;28;20537;-60
2023/07/21 03:27:49;;;;;;;3.87;2.20;;;;;;;;;;5100026;28;20529;-60
2023/07/21 03:30:16;;;;;;;3.73;2.03;;;15.10;99.90;;;;;;5099430;28;20473;-59
2023/07/21 03:32:46;;;;;;;2.17;1.77;;;15.40;99.90;;;;;;5100225;28;20475;-60
2023/07/21 03:35:14;;;;;;;3.77;1.73;;;;;;;;;;5115220;28;20457;-61
2023/07/21 03:37:41;;;;;;;2.80;1.77;;;;;;;;;;5119409;28;20509;-60
2023/07/21 03:40:10;;;;;;;2.27;1.53;;;15.10;99.90;;;;;;5117454;28;20456;-59
2023/07/21 03:42:39;;;;;;;2.80;1.70;;;;;;;;;;5117662;28;20468;-60
2023/07/21 03:45:07;;;;;;;2.13;1.40;;;15.40;99.90;;;;;;5121894;28;20445;-59
2023/07/21 03:47:34;;;;;;;3.50;2.00;;;;;;;;;;5118594;28;20468;-60
2023/07/21 03:50:02;;;;;;;4.33;2.30;;;15.00;99.90;;;;;;5116535;28;20766;-60
2023/07/21 03:52:29;;;;;;;2.47;1.80;;;15.30;99.90;;;;;;5116704;28;20480;-59
2023/07/21 03:54:56;;;;;;;6.10;2.10;;;15.40;99.90;;;;;;5139989;27;20471;-53
2023/07/21 03:57:23;;;;;;;3.47;1.90;;;15.40;99.90;;;;;;5140903;27;20465;-51
2023/07/21 03:59:52;;;;;;;3.00;2.33;;;15.40;99.90;;;;;;5140900;27;20415;-53
2023/07/21 04:02:19;;;;;;;1.50;1.37;;;15.30;99.90;;;;;;5138783;27;20450;-60
2023/07/21 04:04:48;;;;;;;2.90;2.37;;;;;;;;;;5121006;28;20519;-59
2023/07/21 04:07:15;;;;;;;2.40;1.80;;;15.80;99.90;;;;;;5117094;28;20464;-60
2023/07/21 04:09:42;;;;;;;4.03;2.27;;;15.60;99.90;;;;;;5116468;28;20864;-59
2023/07/21 04:12:09;;;;;;;3.80;2.60;;;15.60;99.90;;;;;;5116075;28;20516;-62
2023/07/21 04:14:36;;;;;;;4.07;1.60;;;;;;;;;;5116234;28;20472;-60
2023/07/21 04:17:06;;;;;;;4.57;2.40;;;15.60;99.90;;;;;;5116773;28;20456;-61
2023/07/21 04:19:32;;;;;;;9.00;2.10;;;15.60;99.90;;;;;;5116357;28;20452;-60
2023/07/21 04:22:01;;;;;;;5.60;1.87;;;;;;;;;;5116324;28;20555;-60
2023/07/21 04:24:28;;;;;;;4.67;2.00;;;;;;;;;;5115932;28;20460;-61
2023/07/21 04:26:55;;;;;;;5.57;2.10;;;16.10;99.90;;;;;;5116138;28;20472;-60
2023/07/21 04:29:22;;;;;;;2.20;1.67;;;;;;;;;;5115936;28;21284;-60
2023/07/21 04:31:49;;;;;;;2.27;1.97;;;;;;;;;;5120072;28;20475;-59
2023/07/21 04:34:19;;;;;;;2.47;1.70;;;15.90;99.90;;;;;;5121273;28;20519;-59
2023/07/21 04:36:47;;;;;;;2.23;1.50;;;;;;;;;;5123042;28;20444;-60
2023/07/21 04:39:14;;;;;;;4.60;2.40;;;16.10;99.90;;;;;;5130196;28;20468;-60
2023/07/21 04:41:41;;;;;;;2.70;1.90;;;16.20;99.90;;;;;;5116851;28;20510;-60
2023/07/21 04:44:08;;;;;;;5.00;2.10;;;;;;;;;;5116054;28;21017;-59
2023/07/21 04:46:35;;;;;;;3.90;2.23;;;16.70;99.90;;;;;;5115908;28;20517;-62
2023/07/21 04:49:07;;;;;;;3.53;2.50;;;;;;;;;;5115536;28;20524;-59
2023/07/21 04:51:35;;;;;;;4.67;3.33;;;16.90;99.90;;;;;;5115333;28;20870;-61
2023/07/21 04:54:02;;;;;;;2.97;2.70;;;17.30;99.90;;;;;;5115569;28;20511;-59
2023/07/21 04:56:29;;;;;;;6.30;2.40;;;17.20;99.90;;;;;;5115572;28;20547;-59
2023/07/21 04:58:57;;;;;;;3.60;2.43;;;;;;;;;;5134664;27;20500;-54
2023/07/21 05:01:23;;;;;;;3.03;2.27;;;17.30;99.90;;;;;;5139590;27;20441;-49
2023/07/21 05:03:50;;;;;;;6.53;2.70;;;;;;;;;;5132138;27;20428;-55
2023/07/21 05:06:18;;;;;;;4.00;2.80;;;17.50;99.90;;;;;;5119007;28;20417;-54
2023/07/21 05:08:49;;;;;;;8.10;3.73;;;17.30;99.90;;;;;;5118901;28;20430;-54
2023/07/21 05:11:18;;;;;;;2.27;2.07;;;18.00;99.90;;;;;;5118427;28;20460;-59
2023/07/21 05:13:48;;;;;;;3.30;2.53;;;;;;;;;;5117587;28;20466;-57
2023/07/21 05:16:15;;;;;;;5.53;4.07;;;;;;;;;;5108920;28;20458;-60
2023/07/21 05:18:42;;;;;;;5.20;3.30;;;;;;;;;;5095072;28;20528;-60
2023/07/21 05:21:09;;;;;;;5.43;4.27;;;17.40;99.90;;;;;;5094454;28;20568;-60
2023/07/21 05:23:36;;;;;;;4.53;4.07;;;;;;;;;;5095682;28;20528;-59
2023/07/21 05:26:04;;;;;;;5.40;4.37;;;;;;;;;;5094289;28;20469;-60
2023/07/21 05:28:33;;;;;;;7.50;5.07;;;;;;;;;;5094139;28;20445;-61
2023/07/21 05:31:00;;;;;;;6.30;5.50;;;17.30;99.90;;;;;;5094259;28;20930;-59
2023/07/21 05:33:27;;;;;;;8.13;6.23;;;;;;;;;;5095331;28;20445;-60
2023/07/21 05:35:54;;;;;;;7.50;6.20;;;16.90;99.90;;;;;;5098859;28;20552;-59
2023/07/21 05:38:21;;;;;;;7.93;5.60;;;17.20;99.90;;;;;;5096507;28;20426;-60
2023/07/21 05:40:57;;;;;;;9.27;5.80;;;17.30;99.90;;;;;;5098772;28;20502;-58
2023/07/21 05:43:25;;;;;;;7.83;6.10;;;17.40;99.90;;;;;;5093644;28;20436;-60
2023/07/21 05:45:53;;;;;;;9.97;7.90;;;;;;;;;;5094104;28;20457;-60
2023/07/21 05:48:20;;;;;;;13.50;7.60;;;;;;;;;;5095092;28;20517;-60
2023/07/21 05:50:47;;;;;;;10.77;7.00;;;17.40;99.90;;;;;;5096155;28;20457;-60
2023/07/21 05:53:14;;;;;;;8.50;5.97;;;;;;;;;;5096245;28;20489;-61
2023/07/21 05:55:42;;;;;;;9.70;6.43;;;17.90;99.90;;;;;;5096430;28;20472;-60
2023/07/21 05:58:09;;;;;;;7.57;5.70;;;17.70;99.90;;;;;;5097693;28;20474;-60
2023/07/21 06:00:38;;;;;;;9.40;5.23;;;17.60;99.90;;;;;;5105504;28;20464;-60
2023/07/21 06:03:05;;;;;;;12.53;5.90;;;17.70;99.90;;;;;;5108673;28;20446;-58
2023/07/21 06:05:36;;;;;;;4.93;4.47;;;;;;;;;;5134603;28;20451;-58
2023/07/21 06:08:04;;;;;;;12.93;6.07;;;17.80;99.90;;;;;;5127249;28;21236;-60
2023/07/21 06:10:31;;;;;;;7.43;5.97;;;18.10;99.90;;;;;;5119431;28;20457;-62
2023/07/21 06:12:58;;;;;;;6.10;5.00;;;18.10;99.90;;;;;;5118835;28;20509;-60
2023/07/21 06:15:25;;;;;;;4.10;3.63;;;18.20;99.90;;;;;;5117319;28;20567;-59
2023/07/21 06:17:53;;;;;;;4.37;3.53;;;18.00;99.90;;;;;;5114656;28;20469;-60
2023/07/21 06:20:22;;;;;;;3.67;3.27;;;;;;;;;;5114146;28;20455;-59
2023/07/21 06:22:49;;;;;;;4.17;3.43;;;18.10;99.90;;;;;;5114528;28;20533;-60
2023/07/21 06:25:18;;;;;;;3.20;2.73;;;;;;;;;;5114421;28;20441;-60
2023/07/21 06:27:46;;;;;;;4.70;4.00;;;18.00;99.90;;;;;;5114581;28;20663;-60
2023/07/21 06:30:13;;;;;;;8.60;3.97;;;18.40;99.90;;;;;;5114894;28;20506;-60
2023/07/21 06:32:41;;;;;;;4.40;3.43;;;;;;;;;;5116893;28;20479;-61
2023/07/21 06:35:10;;;;;;;4.93;4.00;;;;;;;;;;5097283;28;20473;-59
2023/07/21 06:37:38;;;;;;;4.73;2.80;;;;;;;;;;5093788;28;20484;-60
2023/07/21 06:40:05;;;;;;;4.60;3.90;;;18.60;99.90;;;;;;5093629;28;20520;-60
2023/07/21 06:42:32;;;;;;;4.60;3.83;;;18.60;99.90;;;;;;5093484;28;20469;-59
2023/07/21 06:44:59;;;;;;;6.97;5.83;;;19.00;99.90;;;;;;5093831;28;20448;-59
2023/07/21 06:47:26;;;;;;;5.53;4.17;;;;;;;;;;5093655;28;20481;-59
2023/07/21 06:49:53;;;;;;;8.53;4.30;;;;;;;;;;5093809;28;20533;-60
2023/07/21 06:52:21;;;;;;;5.27;4.03;;;18.40;99.90;;;;;;5093812;28;20545;-60
2023/07/21 06:54:48;;;;;;;8.03;5.00;;;18.50;99.90;;;;;;5097060;28;20481;-60
2023/07/21 06:57:16;;;;;;;9.37;5.90;;;;;;;;;;5097254;28;20544;-63
2023/07/21 06:59:43;;;;;;;9.53;6.00;;;;;;;;;;5099859;28;20834;-61
2023/07/21 07:02:12;;;;;;;11.00;5.40;;;18.60;99.90;;;;;;5110722;28;20458;-54
2023/07/21 07:04:41;;;;;;;6.70;5.00;;;18.70;99.90;;;;;;5109729;28;20791;-59
2023/07/21 07:07:08;;;;;;;10.67;6.23;;;18.80;99.90;;;;;;5104251;28;20450;-59
2023/07/21 07:09:38;;;;;;;6.40;5.00;;;18.70;99.90;;;;;;5106602;28;20536;-62
2023/07/21 07:12:08;;;;;;;10.73;5.30;;;18.40;99.90;;;;;;5103159;28;20430;-61
2023/07/21 07:14:37;;;;;;;11.23;6.43;;;18.70;99.90;;;;;;5106666;28;20493;-56
2023/07/21 07:17:05;;;;;;;9.27;6.70;;;19.10;99.90;;;;;;5119336;28;20925;-58
2023/07/21 07:19:32;;;;;;;13.10;6.10;;;;;;;;;;5119874;28;20437;-58
2023/07/21 07:21:59;;;;;;;8.13;5.50;;;;;;;;;;5107365;28;20508;-60
2023/07/21 07:24:26;;;;;;;7.67;5.97;;;18.50;99.90;;;;;;5107100;28;20457;-61
2023/07/21 07:26:54;;;;;;;8.03;6.20;;;18.40;99.90;;;;;;5097372;28;20509;-57
2023/07/21 07:29:21;;;;;;;12.43;6.50;;;;;;;;;;5096703;28;20834;-60
2023/07/21 07:31:49;;;;;;;11.30;6.60;;;18.60;99.90;;;;;;5099594;28;20434;-61
2023/07/21 07:34:16;;;;;;;11.03;5.20;;;19.20;99.90;;;;;;5108748;28;20484;-60
2023/07/21 07:36:43;;;;;;;7.33;5.60;;;;;;;;;;5119624;28;20436;-60
2023/07/21 07:39:11;;;;;;;13.43;6.10;;;18.60;99.90;;;;;;5118739;28;20474;-60
2023/07/21 07:41:38;;;;;;;11.90;6.57;;;;;;;;;;5121734;28;20456;-58
2023/07/21 07:44:08;;;;;;;14.27;7.27;;;19.20;99.90;;;;;;5125952;28;20486;-60
2023/07/21 07:46:35;;;;;;;10.60;6.27;;;;;;;;;;5125689;28;20464;-59
2023/07/21 07:49:02;;;;;;;6.53;5.10;;;19.80;99.90;;;;;;5125360;28;20861;-61
2023/07/21 07:51:30;;;;;;;8.60;4.83;;;19.90;99.90;;;;;;5125213;28;20856;-60
2023/07/21 07:53:58;;;;;;;7.00;3.85;;;;;;;;;;5124410;28;20437;-61
2023/07/21 07:56:26;;;;;;;11.57;4.60;;;;;;;;;;5116404;28;20624;-60
2023/07/21 07:58:53;;;;;;;6.23;3.40;;;20.20;99.90;;;;;;5116183;28;20460;-60
2023/07/21 08:01:21;;;;;;;4.83;2.80;;;21.10;99.90;;;;;;5116395;28;20465;-59
2023/07/21 08:03:48;;;;;;;3.90;2.87;;;;;;;;;;5109022;28;20544;-59
2023/07/21 08:06:15;;;;;;;4.70;2.40;;;21.10;99.90;;;;;;5097019;28;20512;-59
2023/07/21 08:08:42;;;;;;;4.37;2.20;;;20.90;99.90;;;;;;5095745;28;20469;-61
2023/07/21 08:11:10;;;;;;;4.30;2.47;;;;;;;;;;5095960;28;20491;-62
2023/07/21 08:13:38;;;;;;;5.60;2.10;;;20.50;99.90;;;;;;5096092;28;20480;-61
2023/07/21 08:16:12;;;;;;;3.03;1.90;;;20.50;99.90;;;;;;5096677;28;20489;-60
2023/07/21 08:18:44;;;;;;;3.50;2.30;;;20.80;99.90;;;;;;5099153;28;20466;-60
2023/07/21 08:21:18;;;;;;;3.10;2.20;;;20.60;99.90;;;;;;5102348;28;20448;-60
2023/07/21 08:23:45;;;;;;;5.43;2.03;;;;;;;;;;5103183;28;20887;-60
2023/07/21 08:26:12;;;;;;;2.37;1.73;;;20.80;99.90;;;;;;5101882;28;20449;-60
2023/07/21 08:28:40;;;;;;;2.10;1.77;;;21.10;99.90;;;;;;5102436;28;20537;-59
2023/07/21 08:31:08;;;;;;;2.60;2.17;;;;;;;;;;5100067;28;20478;-59
2023/07/21 08:33:36;;;;;;;4.77;2.23;;;;;;;;;;5098452;28;20464;-59
2023/07/21 08:36:05;;;;;;;2.80;1.93;;;21.70;99.90;;;;;;5098516;28;20524;-61
2023/07/21 08:38:33;;;;;;;3.93;1.70;;;21.60;99.90;;;;;;5098033;28;20456;-61
2023/07/21 08:41:04;;;;;;;2.27;1.53;;;21.50;99.90;;;;;;5095397;28;20462;-61
2023/07/21 08:43:31;;;;;;;4.80;1.87;;;21.40;99.90;;;;;;5095433;28;20560;-60
2023/07/21 08:46:01;;;;;;;2.90;2.00;;;21.40;99.90;;;;;;5094952;28;20473;-60
2023/07/21 08:48:28;;;;;;;3.40;2.53;;;21.10;99.90;;;;;;5094888;28;20479;-61
2023/07/21 08:50:56;;;;;;;2.27;1.80;;;21.10;99.90;;;;;;5095208;28;20503;-59
2023/07/21 08:53:25;;;;;;;3.27;2.10;;;21.00;99.90;;;;;;5094952;28;20840;-59
2023/07/21 08:55:54;;;;;;;3.00;1.83;;;20.80;99.90;;;;;;5094326;28;21015;-59
2023/07/21 08:58:22;;;;;;;2.00;1.60;;;20.70;99.90;;;;;;5095002;28;20492;-58
2023/07/21 09:00:49;;;;;;;1.40;1.20;;;21.00;99.90;;;;;;5095445;28;20463;-62
2023/07/21 09:03:22;;;;;;;1.90;1.70;;;;;;;;;;5098516;28;20465;-60
2023/07/21 09:05:49;;;;;;;5.13;1.67;;;20.70;99.90;;;;;;5118100;28;20402;-51
2023/07/21 09:08:20;;;;;;;3.30;1.90;;;20.60;99.90;;;;;;5118100;28;20516;-55
2023/07/21 09:10:49;;;;;;;3.87;2.13;;;20.80;99.90;;;;;;5118108;28;20446;-59
2023/07/21 09:13:17;;;;;;;2.43;2.23;;;20.30;99.90;;;;;;5095568;28;20505;-59
2023/07/21 09:15:51;;;;;;;1.93;1.37;;;20.50;99.90;;;;;;5094597;28;20509;-59
2023/07/21 09:18:19;;;;;;;6.30;2.13;;;20.40;99.90;;;;;;5096599;28;20559;-60
2023/07/21 09:20:49;;;;;;;6.43;2.00;;;20.50;99.90;;;;;;5097424;28;20449;-61
2023/07/21 09:23:19;;;;;;;4.73;1.90;;;20.30;99.90;;;;;;5097967;28;20556;-60
2023/07/21 09:25:55;;;;;;;2.93;1.50;;;20.60;99.90;;;;;;5098227;28;20484;-57
2023/07/21 09:28:39;;;;;;;2.27;1.60;;;20.80;99.90;;;;;;5097501;28;20483;-60
2023/07/21 09:31:09;;;;;;;3.23;2.10;;;21.00;99.90;;;;;;5098276;28;20443;-60
2023/07/21 09:33:38;;;;;;;2.90;1.90;;;20.90;99.90;;;;;;5098776;28;20453;-61
2023/07/21 09:36:07;;;;;;;1.40;1.30;;;21.00;99.90;;;;;;5094500;28;20457;-59
2023/07/21 09:38:35;;;;;;;2.90;1.83;;;21.30;99.90;;;;;;5105678;28;20517;-58
2023/07/21 09:41:04;;;;;;;2.70;1.60;;;21.30;99.90;;;;;;5115418;28;20533;-62
2023/07/21 09:43:32;;;;;;;1.77;1.40;;;21.10;99.90;;;;;;5115573;28;20448;-59
2023/07/21 09:46:01;;;;;;;3.20;1.70;;;21.60;99.90;;;;;;5114936;28;20475;-59
2023/07/21 09:48:28;;;;;;;2.77;1.87;;;22.00;99.90;;;;;;5114713;28;20453;-57
2023/07/21 09:50:58;;;;;;;3.80;2.37;;;22.20;99.90;;;;;;5097605;28;20437;-61
2023/07/21 09:53:30;;;;;;;3.83;2.20;;;22.40;99.90;;;;;;5094243;28;20478;-60
2023/07/21 09:55:59;;;;;;;2.50;2.00;;;22.90;99.90;;;;;;5093966;28;20489;-60
2023/07/21 09:58:29;;;;;;;5.33;1.73;;;22.90;99.90;;;;;;5094163;28;20532;-60
2023/07/21 10:01:00;;;;;;;2.93;1.83;;;22.80;99.90;;;;;;5094145;28;20564;-60
2023/07/21 10:03:27;;;;;;;2.87;2.13;;;22.80;99.90;;;;;;5093726;28;20469;-61
2023/07/21 10:05:55;;;;;;;2.73;2.10;;;;;;;;;;5094441;28;20846;-62
2023/07/21 10:08:22;;;;;;;5.67;2.60;;;21.90;99.90;;;;;;5095165;28;20541;-59
2023/07/21 10:10:49;;;;;;;2.70;1.90;;;;;;;;;;5096350;28;20847;-60
2023/07/21 10:13:16;;;;;;;5.13;1.80;;;22.70;99.90;;;;;;5097701;28;20552;-60
2023/07/21 10:15:47;;;;;;;3.40;2.23;;;22.70;99.90;;;;;;5099041;28;20576;-59
2023/07/21 10:18:15;;;;;;;2.40;1.77;;;22.70;99.90;;;;;;5100330;28;20736;-60
2023/07/21 10:20:44;;;;;;;3.40;1.70;;;22.50;99.90;;;;;;5108080;28;20477;-60
2023/07/21 10:23:14;;;;;;;2.60;1.67;;;22.70;99.90;;;;;;5108461;28;20454;-60
2023/07/21 10:25:48;;;;;;;3.30;2.00;;;22.60;99.90;;;;;;5109457;28;20465;-60
2023/07/21 10:28:15;;;;;;;2.60;2.40;;;;;;;;;;5116591;28;20471;-60
2023/07/21 10:30:44;;;;;;;2.60;2.00;;;22.70;99.90;;;;;;5117264;28;20459;-59
2023/07/21 10:33:16;;;;;;;2.40;1.87;;;22.40;99.90;;;;;;5118752;28;20457;-59
2023/07/21 10:35:44;;;;;;;2.97;2.00;;;23.00;99.90;;;;;;5118141;28;20481;-57
2023/07/21 10:38:24;;;;;;;2.70;1.70;;;23.10;99.90;;;;;;5119036;28;20436;-57
2023/07/21 10:40:51;;;;;;;2.10;1.90;;;23.40;99.90;;;;;;5097620;28;20461;-56
2023/07/21 10:43:18;;;;;;;3.27;1.80;;;;;;;;;;5097280;28;20430;-59
2023/07/21 10:45:53;;;;;;;8.03;2.90;;;23.30;99.90;;;;;;5097311;28;20516;-60
2023/07/21 10:48:23;;;;;;;3.07;2.33;;;23.10;99.90;;;;;;5097402;28;20540;-61
2023/07/21 10:50:54;;;;;;;5.97;1.77;;;23.20;99.90;;;;;;5097608;28;20835;-60
2023/07/21 10:53:23;;;;;;;2.00;1.70;;;23.40;99.90;;;;;;5120645;28;20422;-56
2023/07/21 10:55:52;;;;;;;6.03;1.77;;;23.50;99.90;;;;;;5121147;28;20465;-51
2023/07/21 10:58:18;;;;;;;3.33;2.10;;;23.40;99.90;;;;;;5099207;28;20778;-61
2023/07/21 11:00:47;;;;;;;2.13;1.60;;;23.60;99.90;;;;;;5097896;28;20481;-59
2023/07/21 11:03:15;;;;;;;4.03;2.10;;;23.80;99.90;;;;;;5097149;28;20556;-59
2023/07/21 11:05:42;;;;;;;5.43;1.80;;;23.60;99.90;;;;;;5097092;28;20544;-60
2023/07/21 11:08:13;;;;;;;3.33;2.30;;;23.80;99.90;;;;;;5098089;28;20568;-59
2023/07/21 11:10:40;;;;;;;10.00;2.13;;;23.30;99.90;;;;;;5108796;28;20457;-59
2023/07/21 11:13:07;;;;;;;1.80;1.70;;;23.40;99.90;;;;;;5117586;28;20480;-60
2023/07/21 11:15:36;;;;;;;1.97;1.70;;;23.70;99.90;;;;;;5115799;28;20473;-61
2023/07/21 11:18:03;;;;;;;3.17;2.37;;;22.90;99.90;;;;;;5110516;28;20468;-59
2023/07/21 11:20:32;;;;;;;6.40;2.17;;;22.70;99.90;;;;;;5110282;28;20441;-61
2023/07/21 11:22:59;;;;;;;3.60;2.07;;;22.90;99.90;;;;;;5108482;28;20465;-60
2023/07/21 11:25:26;;;;;;;4.50;2.17;;;;;;;;;;5117090;28;20465;-59
2023/07/21 11:27:54;;;;;;;2.47;1.80;;;22.90;99.90;;;;;;5116739;28;20484;-57
2023/07/21 11:30:21;;;;;;;3.63;2.70;;;22.80;99.90;;;;;;5117374;28;20465;-58
2023/07/21 11:32:48;;;;;;;2.60;1.90;;;22.80;99.90;;;;;;5097057;28;20540;-59
2023/07/21 11:35:15;;;;;;;3.30;2.13;;;22.80;99.90;;;;;;5096337;28;20985;-61
2023/07/21 11:37:51;;;;;;;4.60;2.60;;;22.70;99.90;;;;;;5119070;28;20430;-57
2023/07/21 11:40:18;;;;;;;3.23;2.40;;;22.70;99.90;;;;;;5116384;28;20476;-58
2023/07/21 11:42:47;;;;;;;2.70;1.73;;;22.60;99.90;;;;;;5116701;28;20441;-59
2023/07/21 11:45:37;;;;;;;2.17;1.70;;;22.50;99.90;;;;;;5117640;28;20475;-58
2023/07/21 11:48:12;;;;;;;2.57;1.90;;;22.40;99.90;;;;;;5112239;28;20448;-60
2023/07/21 11:50:41;;;;;;;3.00;2.63;;;22.40;99.90;;;;;;5111525;28;20445;-61
2023/07/21 11:53:10;;;;;;;3.70;2.20;;;22.00;99.90;;;;;;5111161;28;20453;-58
2023/07/21 11:55:37;;;;;;;3.63;2.60;;;22.10;99.90;;;;;;5116150;28;20473;-57
2023/07/21 11:58:05;;;;;;;2.87;2.40;;;;;;;;;;5112793;28;20469;-61
2023/07/21 12:00:33;;;;;;;3.60;2.60;;;21.50;99.90;;;;;;5110004;28;20445;-61
2023/07/21 12:03:01;;;;;;;10.70;2.93;;;22.00;99.90;;;;;;5110963;28;20545;-60
2023/07/21 12:05:28;;;;;;;4.40;2.00;;;21.80;99.90;;;;;;5113711;28;20461;-59
2023/07/21 12:07:55;;;;;;;2.70;2.37;;;21.80;99.90;;;;;;5116518;28;20450;-59
2023/07/21 12:10:23;;;;;;;3.87;3.20;;;21.80;99.90;;;;;;5116889;28;20497;-60
2023/07/21 12:12:52;;;;;;;4.00;2.77;;;21.70;99.90;;;;;;5115831;28;20463;-60
2023/07/21 12:15:19;;;;;;;5.60;2.20;;;21.70;99.90;;;;;;5116147;28;20469;-60
2023/07/21 12:17:46;;;;;;;3.30;2.70;;;21.60;99.90;;;;;;5134678;28;20449;-57
2023/07/21 12:20:17;;;;;;;3.63;1.60;;;21.50;99.90;;;;;;5118792;28;20476;-60
2023/07/21 12:22:44;;;;;;;5.20;3.43;;;21.00;99.90;;;;;;5117723;28;20433;-59
2023/07/21 12:25:11;;;;;;;1.80;1.67;;;21.30;99.90;;;;;;5116451;28;20468;-60
2023/07/21 12:27:40;;;;;;;2.30;2.10;;;21.30;99.90;;;;;;5118744;28;20459;-59
2023/07/21 12:30:09;;;;;;;2.63;2.30;;;21.30;99.90;;;;;;5118717;28;20492;-59
2023/07/21 12:32:38;;;;;;;4.53;2.10;;;21.20;99.90;;;;;;5121253;28;20531;-61
2023/07/21 12:35:07;;;;;;;4.10;2.40;;;21.20;99.90;;;;;;5108187;28;20477;-60
2023/07/21 12:37:38;;;;;;;1.73;1.60;;;21.20;99.90;;;;;;5101038;28;20513;-61
2023/07/21 12:40:11;;;;;;;2.37;1.40;;;21.20;99.90;;;;;;5100827;28;20525;-61
2023/07/21 12:42:40;;;;;;;3.47;1.77;;;21.20;99.90;;;;;;5101373;28;21041;-58
2023/07/21 12:45:08;;;;;;;1.87;1.77;;;21.10;99.90;;;;;;5098611;28;20836;-60
2023/07/21 12:47:35;;;;;;;1.83;1.70;;;21.20;99.90;;;;;;5100073;28;20421;-59
2023/07/21 12:50:02;;;;;;;2.43;1.90;;;21.20;99.90;;;;;;5099426;28;20532;-60
2023/07/21 12:52:33;;;;;;;2.10;1.73;;;21.30;99.90;;;;;;5100927;28;20469;-59
2023/07/21 12:55:00;;;;;;;1.47;1.37;;;21.30;99.90;;;;;;5101886;28;20430;-60
2023/07/21 12:57:27;;;;;;;3.87;1.90;;;21.30;99.90;;;;;;5101027;28;20564;-60
2023/07/21 12:59:56;;;;;;;1.70;1.60;;;21.20;99.90;;;;;;5100796;28;20541;-60
2023/07/21 13:02:23;;;;;;;1.53;1.43;;;;;;;;;;5101239;28;20508;-60
2023/07/21 13:04:51;;;;;;;1.93;1.73;;;21.20;99.90;;;;;;5100380;28;20450;-60
2023/07/21 13:07:18;;;;;;;2.80;1.77;;;21.10;99.90;;;;;;5099191;28;20849;-60
2023/07/21 13:09:45;;;;;;;2.53;1.73;;;21.30;99.90;;;;;;5103270;28;20437;-59
2023/07/21 13:12:12;;;;;;;3.30;2.03;;;21.20;99.90;;;;;;5103060;28;20565;-59
2023/07/21 13:14:39;;;;;;;3.50;2.67;;;21.30;99.90;;;;;;5101434;28;20949;-58
2023/07/21 13:17:07;;;;;;;2.37;2.17;;;21.20;99.90;;;;;;5103496;28;20545;-54
2023/07/21 13:19:34;;;;;;;2.80;2.60;;;21.90;99.90;;;;;;5118690;28;20424;-51
2023/07/21 13:22:05;;;;;;;4.53;2.13;;;21.20;99.90;;;;;;5116845;28;20449;-60